Aérodrome :
LOGIN :

S'inscrire | Disclaimer

   EN    FR    IT 

 










Légende :    VFR   VFR Marginal   IFR   IFR Intensif   IFR Très Intensif
Visi : 
Plafond : 
>= 8 km
>= 3000ft
5 à 8 km
1000 à 3000 ft
1500m à 5 km
500 à 1000 ft
800 à 1500m
200 à 500 ft
< 800m
< 200 ft
Symboles :   Orages  Brouillard  Fortes neiges  Fortes précipitations  Vent > 20 kt
SIGMETs :   Divers  Orages  Givrage  Turbulence  Onde Orograph.  Cendres Volcan.







- Altitude de l'aérodrome : 13 ft
- Code IATA : SNR
- Voir les cartes d'approche


LFRZ - St-Nazaire

DERNIER METAR :
  • 140800Z AUTO 25016G31KT 9999 -RA FEW030/// SCT048/// BKN074/// ///TCU 10/06 Q1006 TEMPO 4000 SHRA SCT013CB BKN020TCU

METARs EXPIRÉS :
  • 140730Z AUTO 26016KT CAVOK 09/05 Q1006 TEMPO 26025G40KT 4000 SHRA SCT013CB BKN020TCU
  • 140700Z AUTO 25011KT 9999 SCT034 BKN046 BKN058 09/06 Q1006 BECMG 25020G30KT
  • 140630Z AUTO 25009KT 9999 FEW025 SCT072 OVC170 08/06 Q1007 BECMG 25020G30KT
  • 140600Z AUTO 27012KT 240V310 9999 -RA SCT030 BKN043 BKN052 09/05 Q1007 BECMG 25020G30KT
  • 140530Z AUTO 25007KT 9999 FEW046 BKN064 BKN220 07/05 Q1007 BECMG 25020G30KT

TAF TAF LFRZ
Valide du 14 à 06h jusqu'au 15 à 06h UTC


140500Z 1406/1506 25015G25KT 9999 SCT020
BECMG 1407/1409 25020G30KT
TEMPO 1409/1418 26025G40KT
TEMPO 1409/1424 4000 SHRA SCT013CB BKN020TCU
PROB30
TEMPO 1413/1418 2000 TSRA BKN015CB
Pas de NOTAMs connus pour ce terrain.
3 SIGMETs publiés pour la FIR Brest (LFRR) :
 
Annulation du SIGMET 2 
LFRR SIGMET 5 VALID 140610/140900 LFPW
LFRR BREST FIR/UIR CNL SIGMET 2 140700/140900=
Turbulence forte
LFRR SIGMET 3 VALID 140600/141000 LFPW
LFRR BREST FIR/UIR SEV TURB OBS AT 0600Z WI N4715 W00800 - N4900 W00800 - N5000 W00200 - N5000 W00015 - N4900 W00015 - N4830 W00400 - N4700 W00200 - N4715 W00800 SFC/FL060 STNR NC=
SIGMET 2  ANNULÉ :
Turbulence forte
LFRR SIGMET 2 VALID 140700/140900 LFPW
LFRR BREST FIR/UIR SEV TURB FCST WI N4730 W00800 - N4900 W00800 - N5000 W00200 - N4915 W00130 - N4830 W00445 - N4730 W00445 - N4730 W00800 SFC/FL050 STNR NC=



MET'MAP, la Météo Aéronautique d'un coup d'oeil ! - Copyright ORBIFLY Décembre 2007 - Disclaimer

ORBIFLY MET'MAP TEAM :

Programmation & Développement : Alexandra Zaïnal
Conception & Développement : Baudouin d'Aumeries
Co-Programmation & Développement : Marc-Olivier Méhu
Soutien technique & logistique : Manuel Goepfert

Contact : metmap@orbifly.com




SOURCES & CREDITS :

   NOAA